createdAt,value
2019-03-31T00:01:11.279Z,56.40
2019-03-31T00:03:44.209Z,56.10
2019-03-31T00:06:17.092Z,58.30
2019-03-31T00:08:49.993Z,53.13
2019-03-31T00:11:22.798Z,52.17
2019-03-31T00:13:55.581Z,51.27
2019-03-31T00:16:28.396Z,50.17
2019-03-31T00:19:01.454Z,53.10
2019-03-31T00:21:34.228Z,48.73
2019-03-31T00:24:07.034Z,48.17
2019-03-31T00:26:39.838Z,49.37
2019-03-31T00:29:12.750Z,42.10
2019-03-31T00:31:45.568Z,54.57
2019-03-31T00:34:18.548Z,54.87
2019-03-31T00:36:53.341Z,56.93
2019-03-31T00:39:26.184Z,57.40
2019-03-31T00:41:58.974Z,49.70
2019-03-31T00:44:32.076Z,60.37
2019-03-31T00:47:06.366Z,54.27
2019-03-31T00:49:39.222Z,48.63
2019-03-31T00:52:12.070Z,49.67
2019-03-31T00:54:44.930Z,50.03
2019-03-31T00:57:17.696Z,40.93
2019-03-31T00:59:50.494Z,37.27
2019-03-31T01:02:27.259Z,27.93
2019-03-31T01:05:00.341Z,37.07
2019-03-31T01:07:33.356Z,41.10
2019-03-31T01:10:06.872Z,90.43
2019-03-31T01:12:40.145Z,118.20
2019-03-31T01:15:17.323Z,64.73
2019-03-31T01:17:50.937Z,65.73
2019-03-31T01:20:23.773Z,73.83
2019-03-31T01:22:56.676Z,87.17
2019-03-31T01:25:29.524Z,71.97
2019-03-31T01:28:02.719Z,61.80
2019-03-31T01:30:35.761Z,67.73
2019-03-31T01:33:08.642Z,54.67
2019-03-31T01:35:41.576Z,54.53
2019-03-31T01:38:14.457Z,62.90
2019-03-31T01:40:47.287Z,65.47
2019-03-31T01:43:21.191Z,51.37
2019-03-31T01:45:54.162Z,56.53
2019-03-31T01:48:26.960Z,56.50
2019-03-31T01:50:59.883Z,56.93
2019-03-31T01:53:32.760Z,46.00
2019-03-31T01:56:06.242Z,46.33
2019-03-31T01:58:39.007Z,36.80
2019-03-31T02:01:14.203Z,42.63
2019-03-31T02:03:47.094Z,47.17
2019-03-31T02:06:19.944Z,50.93
2019-03-31T02:08:52.705Z,49.50
2019-03-31T02:11:25.806Z,48.57
2019-03-31T02:13:58.589Z,45.67
2019-03-31T02:16:32.134Z,47.27
2019-03-31T02:19:05.166Z,45.13
2019-03-31T02:21:37.972Z,44.90
2019-03-31T02:24:10.744Z,41.27
2019-03-31T02:26:43.556Z,42.00
2019-03-31T02:29:16.456Z,44.37
2019-03-31T02:31:49.351Z,43.13
2019-03-31T02:34:22.276Z,33.43
2019-03-31T02:36:55.098Z,37.17
2019-03-31T02:39:28.018Z,41.07
2019-03-31T02:42:01.585Z,45.80
2019-03-31T02:44:34.499Z,44.17
2019-03-31T02:47:07.379Z,29.43
2019-03-31T02:49:38.772Z,26.53
2019-03-31T02:52:11.742Z,25.57
2019-03-31T02:54:44.876Z,22.60
2019-03-31T02:57:18.040Z,29.27
2019-03-31T02:59:53.633Z,25.93
2019-03-31T03:02:41.443Z,32.97
2019-03-31T03:05:19.006Z,25.53
2019-03-31T03:07:43.905Z,28.40
2019-03-31T03:10:16.684Z,35.43
2019-03-31T03:12:51.954Z,32.20
2019-03-31T03:15:30.514Z,43.07
2019-03-31T03:18:03.463Z,44.57
2019-03-31T03:20:36.238Z,36.70
2019-03-31T03:23:09.003Z,28.47
2019-03-31T03:25:54.825Z,41.83
2019-03-31T03:28:16.704Z,29.20
2019-03-31T03:30:49.577Z,30.50
2019-03-31T03:33:22.682Z,30.50
2019-03-31T03:35:55.624Z,27.20
2019-03-31T03:38:28.408Z,27.37
2019-03-31T03:41:01.650Z,22.13
2019-03-31T03:43:34.419Z,23.20
2019-03-31T03:46:07.202Z,31.07
2019-03-31T03:48:39.979Z,47.20
2019-03-31T03:51:12.837Z,46.17
2019-03-31T03:53:45.749Z,40.67
2019-03-31T03:56:18.515Z,38.30
2019-03-31T03:58:51.712Z,35.70
2019-03-31T04:01:27.466Z,36.57
2019-03-31T04:04:00.362Z,34.67
2019-03-31T04:06:33.251Z,44.80
2019-03-31T04:09:07.766Z,34.70
2019-03-31T04:11:40.874Z,35.33
2019-03-31T04:14:13.747Z,38.13
2019-03-31T04:16:46.492Z,40.17
2019-03-31T04:19:19.318Z,29.53
2019-03-31T04:21:52.095Z,26.93
2019-03-31T04:24:24.871Z,27.73
2019-03-31T04:26:57.779Z,26.90
2019-03-31T04:29:30.647Z,42.13
2019-03-31T04:32:03.491Z,39.80
2019-03-31T04:34:36.353Z,40.10
2019-03-31T04:37:09.266Z,47.13
2019-03-31T04:39:42.294Z,42.17
2019-03-31T04:42:15.112Z,37.40
2019-03-31T04:44:51.181Z,42.33
2019-03-31T04:47:23.944Z,31.27
2019-03-31T04:49:56.746Z,40.23
2019-03-31T04:52:29.590Z,45.93
2019-03-31T04:55:02.580Z,43.93
2019-03-31T04:57:35.337Z,50.37
2019-03-31T05:00:08.428Z,53.80
2019-03-31T05:02:41.218Z,56.83
2019-03-31T05:05:13.998Z,56.43
2019-03-31T05:07:46.837Z,55.50
2019-03-31T05:10:19.657Z,47.87
2019-03-31T05:12:53.576Z,44.73
2019-03-31T05:15:26.450Z,50.10
2019-03-31T05:17:59.260Z,51.33
2019-03-31T05:20:32.224Z,49.60
2019-03-31T05:23:05.035Z,49.30
2019-03-31T05:25:38.016Z,47.20
2019-03-31T05:28:10.827Z,47.63
2019-03-31T05:30:43.604Z,45.97
2019-03-31T05:33:16.513Z,44.80
2019-03-31T05:35:50.982Z,51.93
2019-03-31T05:38:23.760Z,50.20
2019-03-31T05:40:56.552Z,51.13
2019-03-31T05:43:29.406Z,57.77
2019-03-31T05:46:02.535Z,54.17
2019-03-31T05:48:35.350Z,58.67
2019-03-31T05:51:09.283Z,56.93
2019-03-31T05:53:42.084Z,59.27
2019-03-31T05:56:14.909Z,54.47
2019-03-31T05:58:47.702Z,56.43
2019-03-31T06:01:20.534Z,57.17
2019-03-31T06:03:53.392Z,54.07
2019-03-31T06:06:26.204Z,51.00
2019-03-31T06:08:59.032Z,52.03
2019-03-31T06:11:31.970Z,45.33
2019-03-31T06:14:04.796Z,45.90
2019-03-31T06:16:37.722Z,41.05
2019-03-31T06:19:11.105Z,34.95
2019-03-31T06:21:44.018Z,31.02
2019-03-31T06:24:16.966Z,28.75
2019-03-31T06:26:49.864Z,30.25
2019-03-31T06:29:22.624Z,27.00
2019-03-31T06:31:55.565Z,26.27
2019-03-31T06:34:29.548Z,25.68
2019-03-31T06:37:02.387Z,27.48
2019-03-31T06:39:35.286Z,31.48
2019-03-31T06:42:08.113Z,30.85
2019-03-31T06:44:41.402Z,31.05
2019-03-31T06:47:14.373Z,33.33
2019-03-31T06:49:47.298Z,32.30
2019-03-31T06:52:20.158Z,27.13
2019-03-31T06:54:52.982Z,33.15
2019-03-31T06:57:25.970Z,43.80
2019-03-31T07:00:01.701Z,72.97
2019-03-31T07:02:34.571Z,45.15
2019-03-31T07:05:07.891Z,49.60
2019-03-31T07:07:41.333Z,50.52
2019-03-31T07:10:14.973Z,44.10
2019-03-31T07:12:49.763Z,35.23
2019-03-31T07:15:22.532Z,31.23
2019-03-31T07:17:55.425Z,31.45
2019-03-31T07:20:28.451Z,32.35
2019-03-31T07:23:01.334Z,28.83
2019-03-31T07:25:37.056Z,30.30
2019-03-31T07:28:08.876Z,28.67
2019-03-31T07:30:41.734Z,27.87
2019-03-31T07:33:16.199Z,26.75
2019-03-31T07:35:48.995Z,23.00
2019-03-31T07:38:22.090Z,20.65
2019-03-31T07:40:55.415Z,19.55
2019-03-31T07:43:28.302Z,18.60
2019-03-31T07:46:01.202Z,18.60
2019-03-31T07:48:34.130Z,18.35
2019-03-31T07:51:06.934Z,15.80
2019-03-31T07:53:39.863Z,18.10
2019-03-31T07:56:15.975Z,15.95
2019-03-31T07:58:47.342Z,19.55
2019-03-31T08:01:20.158Z,20.45
2019-03-31T08:03:53.085Z,24.50
2019-03-31T08:06:26.052Z,16.75
2019-03-31T08:08:58.894Z,17.98
2019-03-31T08:11:32.180Z,50.12
2019-03-31T08:14:04.992Z,20.15
2019-03-31T08:16:37.864Z,27.50
2019-03-31T08:19:10.888Z,33.13
2019-03-31T08:21:43.801Z,29.32
2019-03-31T08:24:16.747Z,16.25
2019-03-31T08:26:49.641Z,16.40
2019-03-31T08:29:24.252Z,16.97
2019-03-31T08:31:57.178Z,18.32
2019-03-31T08:34:29.984Z,15.88
2019-03-31T08:37:02.798Z,15.88
2019-03-31T08:39:35.664Z,16.32
2019-03-31T08:42:09.684Z,17.65
2019-03-31T08:44:42.658Z,16.55
2019-03-31T08:47:15.515Z,24.67
2019-03-31T08:49:48.348Z,21.20
2019-03-31T08:52:21.486Z,17.20
2019-03-31T08:54:54.688Z,14.33
2019-03-31T08:57:27.501Z,14.23
2019-03-31T09:00:01.394Z,14.30
2019-03-31T09:02:35.617Z,14.87
2019-03-31T09:05:10.253Z,16.25
2019-03-31T09:07:43.185Z,22.45
2019-03-31T09:10:16.280Z,28.38
2019-03-31T09:12:49.143Z,21.10
2019-03-31T09:15:22.359Z,19.35
2019-03-31T09:17:55.131Z,15.72
2019-03-31T09:20:27.912Z,17.87
2019-03-31T09:23:01.028Z,13.70
2019-03-31T09:25:36.059Z,13.28
2019-03-31T09:28:09.077Z,12.05
2019-03-31T09:30:42.140Z,13.88
2019-03-31T09:33:15.023Z,12.73
2019-03-31T09:35:47.885Z,13.13
2019-03-31T09:38:20.722Z,13.28
2019-03-31T09:40:53.700Z,13.28
2019-03-31T09:43:26.439Z,15.70
2019-03-31T09:46:00.828Z,15.65
2019-03-31T09:48:33.675Z,17.32
2019-03-31T09:51:07.617Z,18.95
2019-03-31T09:53:42.333Z,21.52
2019-03-31T09:56:16.963Z,21.97
2019-03-31T09:58:51.602Z,23.05
2019-03-31T10:01:24.428Z,24.63
2019-03-31T10:03:57.210Z,25.72
2019-03-31T10:06:30.865Z,22.95
2019-03-31T10:09:04.538Z,21.20
2019-03-31T10:11:37.496Z,24.00
2019-03-31T10:14:10.324Z,23.20
2019-03-31T10:16:43.137Z,22.17
2019-03-31T10:19:15.968Z,24.90
2019-03-31T10:21:48.898Z,24.32
2019-03-31T10:24:22.087Z,21.93
2019-03-31T10:26:54.954Z,21.62
2019-03-31T10:29:27.860Z,20.92
2019-03-31T10:32:00.741Z,20.75
2019-03-31T10:34:33.541Z,21.50
2019-03-31T10:37:06.336Z,22.37
2019-03-31T10:39:39.256Z,23.32
2019-03-31T10:42:12.046Z,22.50
2019-03-31T10:44:44.938Z,23.15
2019-03-31T10:47:17.830Z,19.00
2019-03-31T10:49:51.022Z,17.37
2019-03-31T10:52:23.985Z,14.83
2019-03-31T10:54:56.948Z,13.98
2019-03-31T10:57:29.735Z,13.93
2019-03-31T11:00:02.780Z,11.18
2019-03-31T11:02:35.760Z,11.83
2019-03-31T11:05:08.882Z,10.38
2019-03-31T11:07:41.922Z,8.93
2019-03-31T11:10:14.841Z,8.63
2019-03-31T11:12:50.809Z,8.40
2019-03-31T11:15:23.886Z,8.70
2019-03-31T11:17:56.665Z,8.40
2019-03-31T11:20:29.584Z,6.70
2019-03-31T11:23:18.280Z,7.83
2019-03-31T11:25:51.577Z,7.72
2019-03-31T11:28:27.245Z,8.70
2019-03-31T11:31:00.044Z,8.63
2019-03-31T11:33:32.891Z,9.28
2019-03-31T11:36:05.718Z,7.83
2019-03-31T11:38:38.673Z,8.10
2019-03-31T11:41:11.458Z,7.95
2019-03-31T11:43:44.327Z,6.75
2019-03-31T11:46:19.857Z,5.40
2019-03-31T11:48:52.725Z,6.92
2019-03-31T11:51:25.583Z,7.20
2019-03-31T11:53:58.359Z,7.22
2019-03-31T11:56:31.157Z,8.50
2019-03-31T11:59:03.920Z,9.38
2019-03-31T12:01:37.882Z,10.35
2019-03-31T12:04:10.761Z,9.83
2019-03-31T12:06:44.665Z,10.70
2019-03-31T12:09:17.736Z,10.50
2019-03-31T12:11:50.606Z,11.33
2019-03-31T12:14:23.399Z,11.00
2019-03-31T12:16:56.378Z,11.40
2019-03-31T12:19:29.160Z,12.40
2019-03-31T12:22:02.126Z,11.78
2019-03-31T12:24:35.028Z,10.55
2019-03-31T12:27:07.963Z,14.53
2019-03-31T12:29:41.366Z,17.03
2019-03-31T12:32:15.352Z,21.43
2019-03-31T12:34:48.462Z,17.53
2019-03-31T12:37:21.363Z,14.27
2019-03-31T12:39:54.121Z,12.27
2019-03-31T12:42:26.958Z,14.07
2019-03-31T12:45:00.742Z,16.23
2019-03-31T12:47:35.452Z,14.70
2019-03-31T12:50:09.043Z,14.10
2019-03-31T12:52:47.454Z,14.07
2019-03-31T12:55:18.020Z,14.47
2019-03-31T12:57:52.053Z,14.43
2019-03-31T13:00:25.229Z,16.17
2019-03-31T13:02:58.131Z,13.80
2019-03-31T13:05:31.321Z,14.33
2019-03-31T13:08:04.249Z,16.13
2019-03-31T13:10:37.372Z,20.53
2019-03-31T13:13:10.157Z,20.97
2019-03-31T13:15:43.077Z,17.10
2019-03-31T13:18:16.405Z,16.37
2019-03-31T13:20:49.550Z,13.30
2019-03-31T13:23:22.332Z,12.10
2019-03-31T13:25:55.144Z,14.43
2019-03-31T13:28:27.925Z,15.13
2019-03-31T13:31:00.819Z,13.87
2019-03-31T13:33:33.740Z,12.70
2019-03-31T13:36:06.605Z,12.40
2019-03-31T13:38:39.493Z,12.30
2019-03-31T13:41:12.332Z,11.50
2019-03-31T13:43:45.131Z,12.10
2019-03-31T13:46:19.087Z,10.80
2019-03-31T13:48:52.044Z,11.43
2019-03-31T13:51:25.013Z,11.47
2019-03-31T13:53:57.933Z,14.27
2019-03-31T13:56:31.150Z,13.67
2019-03-31T13:59:08.908Z,13.60
2019-03-31T14:01:39.968Z,13.03
2019-03-31T14:04:12.777Z,11.20
2019-03-31T14:06:45.855Z,10.30
2019-03-31T14:09:18.836Z,12.30
2019-03-31T14:11:52.034Z,13.97
2019-03-31T14:14:25.085Z,11.87
2019-03-31T14:16:59.962Z,14.13
2019-03-31T14:19:32.872Z,16.37
2019-03-31T14:22:05.896Z,23.10
2019-03-31T14:24:38.771Z,13.70
2019-03-31T14:27:11.513Z,12.60
2019-03-31T14:29:44.387Z,14.43
2019-03-31T14:32:17.223Z,15.00
2019-03-31T14:34:50.004Z,14.90
2019-03-31T14:37:22.806Z,15.10
2019-03-31T14:39:55.708Z,18.87
2019-03-31T14:42:28.784Z,16.97
2019-03-31T14:45:01.897Z,14.97
2019-03-31T14:47:34.792Z,13.23
2019-03-31T14:50:08.438Z,22.30
2019-03-31T14:52:42.525Z,20.90
2019-03-31T14:55:15.445Z,22.67
2019-03-31T14:57:48.333Z,17.73
2019-03-31T15:00:21.412Z,14.13
2019-03-31T15:02:54.754Z,12.27
2019-03-31T15:05:27.632Z,16.07
2019-03-31T15:08:01.762Z,17.33
2019-03-31T15:10:36.227Z,17.57
2019-03-31T15:13:09.188Z,19.27
2019-03-31T15:15:42.035Z,21.70
2019-03-31T15:18:14.887Z,23.53
2019-03-31T15:20:48.937Z,17.53
2019-03-31T15:23:28.903Z,22.00
2019-03-31T15:25:59.135Z,19.47
2019-03-31T15:28:32.033Z,19.43
2019-03-31T15:31:04.816Z,19.27
2019-03-31T15:33:37.581Z,20.43
2019-03-31T15:36:11.197Z,20.97
2019-03-31T15:38:43.980Z,19.80
2019-03-31T15:41:21.317Z,18.53
2019-03-31T15:43:51.309Z,16.67
2019-03-31T15:46:24.785Z,17.30
2019-03-31T15:48:57.852Z,24.77
2019-03-31T15:51:31.201Z,19.53
2019-03-31T15:54:04.200Z,17.63
2019-03-31T15:56:36.968Z,18.03
2019-03-31T15:59:09.856Z,14.77
2019-03-31T16:01:44.542Z,19.27
2019-03-31T16:04:17.509Z,18.03
2019-03-31T16:06:50.280Z,18.70
2019-03-31T16:09:24.368Z,18.57
2019-03-31T16:11:56.586Z,19.47
2019-03-31T16:14:28.598Z,17.83
2019-03-31T16:17:03.516Z,18.57
2019-03-31T16:19:35.603Z,17.17
2019-03-31T16:22:07.748Z,18.57
2019-03-31T16:24:43.527Z,19.10
2019-03-31T16:27:16.628Z,21.17
2019-03-31T16:29:48.875Z,22.37
2019-03-31T16:32:21.328Z,22.33
2019-03-31T16:34:53.513Z,25.67
2019-03-31T16:37:25.505Z,28.17
2019-03-31T16:39:57.546Z,31.80
2019-03-31T16:42:30.796Z,25.53
2019-03-31T16:45:02.770Z,25.23
2019-03-31T16:47:36.624Z,22.00
2019-03-31T16:50:10.784Z,22.57
2019-03-31T16:52:42.885Z,21.47
2019-03-31T16:55:15.086Z,21.60
2019-03-31T16:57:48.601Z,24.87
2019-03-31T17:00:21.220Z,22.40
2019-03-31T17:02:53.532Z,25.47
2019-03-31T17:05:25.775Z,23.43
2019-03-31T17:07:57.730Z,24.20
2019-03-31T17:10:29.954Z,26.63
2019-03-31T17:13:01.947Z,24.43
2019-03-31T17:15:34.401Z,22.17
2019-03-31T17:18:06.574Z,24.13
2019-03-31T17:20:38.680Z,24.40
2019-03-31T17:23:10.956Z,25.80
2019-03-31T17:25:44.834Z,25.97
2019-03-31T17:28:16.864Z,25.53
2019-03-31T17:30:49.056Z,26.13
2019-03-31T17:33:21.414Z,25.97
2019-03-31T17:35:53.458Z,26.23
2019-03-31T17:38:25.624Z,26.37
2019-03-31T17:40:57.596Z,29.50
2019-03-31T17:43:30.280Z,29.47
2019-03-31T17:46:02.352Z,29.97
2019-03-31T17:48:34.313Z,31.27
2019-03-31T17:51:06.356Z,27.73
2019-03-31T17:53:38.715Z,33.67
2019-03-31T17:56:10.821Z,34.73
2019-03-31T17:58:42.829Z,28.40
2019-03-31T18:01:15.094Z,29.20
2019-03-31T18:03:47.138Z,28.97
2019-03-31T18:06:19.233Z,28.43
2019-03-31T18:08:51.216Z,28.33
2019-03-31T18:11:23.316Z,30.63
2019-03-31T18:13:57.793Z,30.67
2019-03-31T18:16:30.332Z,27.77
2019-03-31T18:19:02.429Z,30.30
2019-03-31T18:21:34.690Z,27.37
2019-03-31T18:24:06.892Z,27.87
2019-03-31T18:26:39.054Z,27.23
2019-03-31T18:29:11.366Z,26.77
2019-03-31T18:31:43.371Z,27.53
2019-03-31T18:34:15.605Z,29.83
2019-03-31T18:36:47.590Z,33.27
2019-03-31T18:39:19.703Z,34.97
2019-03-31T18:41:51.860Z,26.73
2019-03-31T18:44:23.955Z,27.67
2019-03-31T18:46:55.928Z,27.33
2019-03-31T18:49:28.017Z,26.43
2019-03-31T18:52:00.516Z,26.13
2019-03-31T18:54:46.184Z,26.63
2019-03-31T18:57:29.822Z,28.33
2019-03-31T19:00:19.767Z,25.43
2019-03-31T19:03:12.832Z,25.63
2019-03-31T19:06:11.169Z,24.30
2019-03-31T19:09:02.023Z,26.10
2019-03-31T19:11:44.310Z,23.00
2019-03-31T19:14:33.952Z,24.77
2019-03-31T19:17:23.516Z,21.33
2019-03-31T19:20:20.540Z,25.80
2019-03-31T19:23:04.385Z,24.33
2019-03-31T19:26:04.400Z,20.77
2019-03-31T19:28:58.353Z,23.40
2019-03-31T19:31:50.121Z,25.43
2019-03-31T19:34:43.766Z,21.13
2019-03-31T19:37:37.399Z,24.97
2019-03-31T19:40:32.712Z,24.23
2019-03-31T19:43:22.103Z,22.87
2019-03-31T19:46:06.364Z,22.67
2019-03-31T19:48:43.432Z,23.37
2019-03-31T19:51:49.462Z,22.40
2019-03-31T19:54:39.205Z,22.70
2019-03-31T19:57:45.507Z,23.00
2019-03-31T20:00:39.111Z,23.57
2019-03-31T20:03:32.553Z,23.50
2019-03-31T20:06:13.237Z,20.83
2019-03-31T20:08:59.604Z,23.30
2019-03-31T20:11:43.190Z,25.37
2019-03-31T20:14:30.554Z,25.13
2019-03-31T20:17:13.062Z,23.07
2019-03-31T20:20:03.346Z,23.10
2019-03-31T20:22:50.586Z,23.03
2019-03-31T20:26:00.142Z,22.30
2019-03-31T20:28:49.832Z,21.57
2019-03-31T20:31:39.489Z,21.83
2019-03-31T20:34:18.154Z,21.17
2019-03-31T20:37:16.959Z,19.50
2019-03-31T20:40:06.675Z,19.67
2019-03-31T20:42:49.494Z,20.13
2019-03-31T20:45:21.526Z,20.57
2019-03-31T20:47:53.670Z,21.27
2019-03-31T20:50:25.759Z,19.73
2019-03-31T20:52:57.829Z,20.17
2019-03-31T20:55:30.427Z,19.97
2019-03-31T20:58:02.442Z,21.20
2019-03-31T21:00:34.426Z,21.67
2019-03-31T21:03:06.458Z,20.10
2019-03-31T21:05:38.542Z,19.23
2019-03-31T21:08:10.656Z,20.30
2019-03-31T21:10:42.622Z,19.63
2019-03-31T21:13:14.632Z,18.97
2019-03-31T21:15:47.574Z,19.90
2019-03-31T21:18:19.671Z,18.43
2019-03-31T21:20:51.655Z,20.40
2019-03-31T21:23:24.312Z,18.80
2019-03-31T21:25:56.417Z,20.03
2019-03-31T21:28:28.527Z,18.63
2019-03-31T21:31:00.948Z,20.17
2019-03-31T21:33:34.407Z,19.13
2019-03-31T21:36:06.469Z,17.93
2019-03-31T21:38:38.531Z,19.73
2019-03-31T21:41:14.013Z,21.57
2019-03-31T21:43:44.944Z,21.67
2019-03-31T21:46:16.901Z,24.47
2019-03-31T21:48:48.928Z,22.73
2019-03-31T21:51:21.103Z,22.83
2019-03-31T21:53:53.331Z,22.50
2019-03-31T21:56:25.399Z,20.67
2019-03-31T21:58:59.231Z,19.23
2019-03-31T22:01:33.119Z,21.90
2019-03-31T22:04:06.485Z,20.07
2019-03-31T22:06:38.655Z,22.40
2019-03-31T22:09:12.033Z,20.40
2019-03-31T22:11:44.113Z,21.33
2019-03-31T22:14:18.449Z,20.80
2019-03-31T22:16:50.406Z,18.77
2019-03-31T22:19:24.249Z,20.43
2019-03-31T22:21:56.220Z,21.43
2019-03-31T22:24:28.382Z,20.33
2019-03-31T22:27:00.735Z,17.97
2019-03-31T22:29:32.857Z,19.10
2019-03-31T22:32:04.955Z,19.83
2019-03-31T22:34:36.949Z,18.27
2019-03-31T22:37:09.095Z,19.80
2019-03-31T22:42:01.773Z,18.63
2019-03-31T22:44:33.862Z,18.47
2019-03-31T22:47:05.870Z,18.10
2019-03-31T22:49:37.882Z,18.27
2019-03-31T22:52:10.268Z,19.37
2019-03-31T22:54:42.337Z,18.70
2019-03-31T22:57:14.377Z,17.17
2019-03-31T22:59:46.503Z,17.40
2019-03-31T23:02:19.039Z,17.43
2019-03-31T23:04:51.015Z,17.70
2019-03-31T23:07:23.029Z,17.40
2019-03-31T23:09:55.134Z,18.17
2019-03-31T23:12:27.161Z,18.23
2019-03-31T23:14:59.133Z,18.40
2019-03-31T23:17:31.169Z,20.83
2019-03-31T23:20:05.192Z,18.40
2019-03-31T23:22:37.150Z,17.67
2019-03-31T23:25:09.207Z,18.77
2019-03-31T23:27:41.457Z,15.63
2019-03-31T23:30:13.830Z,16.60
2019-03-31T23:32:45.918Z,18.43
2019-03-31T23:35:17.889Z,19.97
2019-03-31T23:37:49.980Z,19.17
2019-03-31T23:40:22.200Z,17.20
2019-03-31T23:42:54.699Z,20.10
2019-03-31T23:45:26.697Z,18.67
2019-03-31T23:47:58.705Z,18.03
2019-03-31T23:50:31.306Z,20.63
2019-03-31T23:53:03.312Z,19.53
2019-03-31T23:55:36.988Z,21.30
2019-03-31T23:58:09.007Z,19.70
